sensor_id;sensor_type;location;lat;lon;timestamp;P1;durP1;ratioP1;P2;durP2;ratioP2
4047;SDS011;2038;51.728;6.674;2023-12-22T00:01:12;4.57;;;2.60;;
4047;SDS011;2038;51.728;6.674;2023-12-22T00:03:42;10.73;;;3.63;;
4047;SDS011;2038;51.728;6.674;2023-12-22T00:06:13;16.20;;;3.17;;
4047;SDS011;2038;51.728;6.674;2023-12-22T00:08:45;12.83;;;3.00;;
4047;SDS011;2038;51.728;6.674;2023-12-22T00:11:12;11.23;;;3.13;;
4047;SDS011;2038;51.728;6.674;2023-12-22T00:13:42;7.17;;;2.30;;
4047;SDS011;2038;51.728;6.674;2023-12-22T00:16:15;10.87;;;2.80;;
4047;SDS011;2038;51.728;6.674;2023-12-22T00:18:42;9.53;;;4.80;;
4047;SDS011;2038;51.728;6.674;2023-12-22T00:21:11;18.23;;;3.17;;
4047;SDS011;2038;51.728;6.674;2023-12-22T00:23:37;13.17;;;3.00;;
4047;SDS011;2038;51.728;6.674;2023-12-22T00:26:07;11.03;;;3.90;;
4047;SDS011;2038;51.728;6.674;2023-12-22T00:28:33;14.70;;;3.43;;
4047;SDS011;2038;51.728;6.674;2023-12-22T00:31:00;12.43;;;2.73;;
4047;SDS011;2038;51.728;6.674;2023-12-22T00:33:26;11.67;;;3.43;;
4047;SDS011;2038;51.728;6.674;2023-12-22T00:35:53;16.70;;;4.10;;
4047;SDS011;2038;51.728;6.674;2023-12-22T00:38:19;7.20;;;2.43;;
4047;SDS011;2038;51.728;6.674;2023-12-22T00:40:48;10.00;;;4.50;;
4047;SDS011;2038;51.728;6.674;2023-12-22T00:43:18;12.40;;;3.47;;
4047;SDS011;2038;51.728;6.674;2023-12-22T00:45:53;9.93;;;3.50;;
4047;SDS011;2038;51.728;6.674;2023-12-22T00:48:21;13.27;;;3.37;;
4047;SDS011;2038;51.728;6.674;2023-12-22T00:50:49;9.93;;;3.33;;
4047;SDS011;2038;51.728;6.674;2023-12-22T00:53:20;6.40;;;2.77;;
4047;SDS011;2038;51.728;6.674;2023-12-22T00:55:47;18.83;;;4.17;;
4047;SDS011;2038;51.728;6.674;2023-12-22T00:58:13;8.43;;;3.50;;
4047;SDS011;2038;51.728;6.674;2023-12-22T01:00:40;11.10;;;3.30;;
4047;SDS011;2038;51.728;6.674;2023-12-22T01:03:06;9.53;;;3.30;;
4047;SDS011;2038;51.728;6.674;2023-12-22T01:05:33;11.10;;;2.80;;
4047;SDS011;2038;51.728;6.674;2023-12-22T01:08:02;23.33;;;5.50;;
4047;SDS011;2038;51.728;6.674;2023-12-22T01:10:29;10.33;;;3.10;;
4047;SDS011;2038;51.728;6.674;2023-12-22T01:12:55;8.17;;;2.83;;
4047;SDS011;2038;51.728;6.674;2023-12-22T01:15:21;11.17;;;3.10;;
4047;SDS011;2038;51.728;6.674;2023-12-22T01:17:48;14.90;;;3.53;;
4047;SDS011;2038;51.728;6.674;2023-12-22T01:20:17;5.43;;;2.27;;
4047;SDS011;2038;51.728;6.674;2023-12-22T01:22:43;10.57;;;3.70;;
4047;SDS011;2038;51.728;6.674;2023-12-22T01:25:10;14.37;;;3.50;;
4047;SDS011;2038;51.728;6.674;2023-12-22T01:27:36;11.47;;;2.33;;
4047;SDS011;2038;51.728;6.674;2023-12-22T01:30:05;5.07;;;2.37;;
4047;SDS011;2038;51.728;6.674;2023-12-22T01:32:32;1.80;;;1.40;;
4047;SDS011;2038;51.728;6.674;2023-12-22T01:35:01;3.27;;;1.70;;
4047;SDS011;2038;51.728;6.674;2023-12-22T01:37:34;2.93;;;1.80;;
4047;SDS011;2038;51.728;6.674;2023-12-22T01:40:03;4.50;;;1.87;;
4047;SDS011;2038;51.728;6.674;2023-12-22T01:42:31;8.03;;;2.80;;
4047;SDS011;2038;51.728;6.674;2023-12-22T01:44:57;5.33;;;2.20;;
4047;SDS011;2038;51.728;6.674;2023-12-22T01:47:23;5.83;;;2.40;;
4047;SDS011;2038;51.728;6.674;2023-12-22T01:49:50;4.57;;;2.30;;
4047;SDS011;2038;51.728;6.674;2023-12-22T01:52:19;5.47;;;2.27;;
4047;SDS011;2038;51.728;6.674;2023-12-22T01:54:47;5.63;;;1.80;;
4047;SDS011;2038;51.728;6.674;2023-12-22T01:57:18;4.60;;;2.30;;
4047;SDS011;2038;51.728;6.674;2023-12-22T01:59:45;7.47;;;2.40;;
4047;SDS011;2038;51.728;6.674;2023-12-22T02:02:16;7.40;;;2.73;;
4047;SDS011;2038;51.728;6.674;2023-12-22T02:04:43;8.83;;;2.57;;
4047;SDS011;2038;51.728;6.674;2023-12-22T02:07:12;8.23;;;3.33;;
4047;SDS011;2038;51.728;6.674;2023-12-22T02:09:38;4.27;;;2.60;;
4047;SDS011;2038;51.728;6.674;2023-12-22T02:12:05;16.33;;;2.77;;
4047;SDS011;2038;51.728;6.674;2023-12-22T02:14:31;12.00;;;2.43;;
4047;SDS011;2038;51.728;6.674;2023-12-22T02:19:49;11.23;;;3.00;;
4047;SDS011;2038;51.728;6.674;2023-12-22T02:22:18;6.07;;;2.20;;
4047;SDS011;2038;51.728;6.674;2023-12-22T02:24:46;8.80;;;2.13;;
4047;SDS011;2038;51.728;6.674;2023-12-22T02:30:11;6.70;;;2.37;;
4047;SDS011;2038;51.728;6.674;2023-12-22T02:33:12;6.50;;;2.50;;
4047;SDS011;2038;51.728;6.674;2023-12-22T02:35:42;12.57;;;2.83;;
4047;SDS011;2038;51.728;6.674;2023-12-22T02:38:11;4.60;;;2.27;;
4047;SDS011;2038;51.728;6.674;2023-12-22T02:40:38;21.13;;;5.53;;
4047;SDS011;2038;51.728;6.674;2023-12-22T02:43:05;6.07;;;2.33;;
4047;SDS011;2038;51.728;6.674;2023-12-22T02:45:33;12.57;;;2.50;;
4047;SDS011;2038;51.728;6.674;2023-12-22T02:48:10;6.13;;;2.20;;
4047;SDS011;2038;51.728;6.674;2023-12-22T02:50:36;7.83;;;3.23;;
4047;SDS011;2038;51.728;6.674;2023-12-22T02:53:03;8.10;;;2.80;;
4047;SDS011;2038;51.728;6.674;2023-12-22T02:55:29;13.97;;;3.17;;
4047;SDS011;2038;51.728;6.674;2023-12-22T02:57:56;17.47;;;3.33;;
4047;SDS011;2038;51.728;6.674;2023-12-22T03:00:22;7.33;;;2.13;;
4047;SDS011;2038;51.728;6.674;2023-12-22T03:02:49;15.90;;;3.43;;
4047;SDS011;2038;51.728;6.674;2023-12-22T03:05:18;8.30;;;3.00;;
4047;SDS011;2038;51.728;6.674;2023-12-22T03:07:45;11.87;;;3.37;;
4047;SDS011;2038;51.728;6.674;2023-12-22T03:10:11;6.97;;;3.23;;
4047;SDS011;2038;51.728;6.674;2023-12-22T03:12:38;14.87;;;3.60;;
4047;SDS011;2038;51.728;6.674;2023-12-22T03:15:04;20.17;;;3.10;;
4047;SDS011;2038;51.728;6.674;2023-12-22T03:17:34;19.23;;;3.40;;
4047;SDS011;2038;51.728;6.674;2023-12-22T03:20:01;11.53;;;2.97;;
4047;SDS011;2038;51.728;6.674;2023-12-22T03:22:27;17.50;;;4.40;;
4047;SDS011;2038;51.728;6.674;2023-12-22T03:24:54;18.90;;;3.43;;
4047;SDS011;2038;51.728;6.674;2023-12-22T03:27:21;22.97;;;4.33;;
4047;SDS011;2038;51.728;6.674;2023-12-22T03:29:48;19.90;;;3.90;;
4047;SDS011;2038;51.728;6.674;2023-12-22T03:32:14;14.00;;;3.17;;
4047;SDS011;2038;51.728;6.674;2023-12-22T03:34:44;18.00;;;4.37;;
4047;SDS011;2038;51.728;6.674;2023-12-22T03:37:10;12.10;;;3.17;;
4047;SDS011;2038;51.728;6.674;2023-12-22T03:39:37;9.87;;;3.50;;
4047;SDS011;2038;51.728;6.674;2023-12-22T03:42:03;16.90;;;4.50;;
4047;SDS011;2038;51.728;6.674;2023-12-22T03:44:30;23.03;;;4.27;;
4047;SDS011;2038;51.728;6.674;2023-12-22T03:46:56;16.00;;;4.37;;
4047;SDS011;2038;51.728;6.674;2023-12-22T03:49:26;8.30;;;4.00;;
4047;SDS011;2038;51.728;6.674;2023-12-22T03:51:52;12.83;;;3.63;;
4047;SDS011;2038;51.728;6.674;2023-12-22T03:54:19;13.33;;;3.07;;
4047;SDS011;2038;51.728;6.674;2023-12-22T03:56:49;5.40;;;2.37;;
4047;SDS011;2038;51.728;6.674;2023-12-22T03:59:15;5.33;;;2.87;;
4047;SDS011;2038;51.728;6.674;2023-12-22T04:01:43;7.17;;;2.30;;
4047;SDS011;2038;51.728;6.674;2023-12-22T04:04:15;5.33;;;1.67;;
4047;SDS011;2038;51.728;6.674;2023-12-22T04:06:42;7.57;;;1.80;;
4047;SDS011;2038;51.728;6.674;2023-12-22T04:09:11;7.97;;;2.80;;
4047;SDS011;2038;51.728;6.674;2023-12-22T04:11:40;11.43;;;2.90;;
4047;SDS011;2038;51.728;6.674;2023-12-22T04:16:47;4.70;;;2.33;;
4047;SDS011;2038;51.728;6.674;2023-12-22T04:19:14;4.33;;;1.67;;
4047;SDS011;2038;51.728;6.674;2023-12-22T04:21:43;2.63;;;2.20;;
4047;SDS011;2038;51.728;6.674;2023-12-22T04:24:09;9.40;;;2.27;;
4047;SDS011;2038;51.728;6.674;2023-12-22T04:26:39;5.03;;;2.67;;
4047;SDS011;2038;51.728;6.674;2023-12-22T04:29:05;5.87;;;2.33;;
4047;SDS011;2038;51.728;6.674;2023-12-22T04:31:32;7.77;;;3.10;;
4047;SDS011;2038;51.728;6.674;2023-12-22T04:33:59;4.90;;;2.10;;
4047;SDS011;2038;51.728;6.674;2023-12-22T04:36:25;4.90;;;2.13;;
4047;SDS011;2038;51.728;6.674;2023-12-22T04:38:52;8.50;;;2.50;;
4047;SDS011;2038;51.728;6.674;2023-12-22T04:41:18;3.30;;;1.93;;
4047;SDS011;2038;51.728;6.674;2023-12-22T04:43:45;10.43;;;2.83;;
4047;SDS011;2038;51.728;6.674;2023-12-22T04:46:11;6.73;;;2.30;;
4047;SDS011;2038;51.728;6.674;2023-12-22T04:48:38;7.47;;;2.40;;
4047;SDS011;2038;51.728;6.674;2023-12-22T04:51:04;7.03;;;2.13;;
4047;SDS011;2038;51.728;6.674;2023-12-22T04:53:31;7.37;;;3.10;;
4047;SDS011;2038;51.728;6.674;2023-12-22T04:56:00;2.63;;;2.23;;
4047;SDS011;2038;51.728;6.674;2023-12-22T04:58:27;15.00;;;2.70;;
4047;SDS011;2038;51.728;6.674;2023-12-22T05:01:04;3.20;;;2.00;;
4047;SDS011;2038;51.728;6.674;2023-12-22T05:03:36;7.80;;;2.17;;
4047;SDS011;2038;51.728;6.674;2023-12-22T05:06:05;11.00;;;3.00;;
4047;SDS011;2038;51.728;6.674;2023-12-22T05:08:37;6.17;;;2.37;;
4047;SDS011;2038;51.728;6.674;2023-12-22T05:11:03;9.10;;;2.17;;
4047;SDS011;2038;51.728;6.674;2023-12-22T05:13:30;7.40;;;2.77;;
4047;SDS011;2038;51.728;6.674;2023-12-22T05:15:59;9.50;;;1.93;;
4047;SDS011;2038;51.728;6.674;2023-12-22T05:18:25;4.30;;;2.47;;
4047;SDS011;2038;51.728;6.674;2023-12-22T05:20:51;8.23;;;2.73;;
4047;SDS011;2038;51.728;6.674;2023-12-22T05:23:19;11.10;;;2.53;;
4047;SDS011;2038;51.728;6.674;2023-12-22T05:25:46;7.77;;;3.03;;
4047;SDS011;2038;51.728;6.674;2023-12-22T05:28:12;13.43;;;3.07;;
4047;SDS011;2038;51.728;6.674;2023-12-22T05:30:39;9.83;;;3.33;;
4047;SDS011;2038;51.728;6.674;2023-12-22T05:33:09;10.40;;;2.73;;
4047;SDS011;2038;51.728;6.674;2023-12-22T05:35:35;12.13;;;3.80;;
4047;SDS011;2038;51.728;6.674;2023-12-22T05:38:02;7.33;;;2.43;;
4047;SDS011;2038;51.728;6.674;2023-12-22T05:40:31;18.27;;;3.23;;
4047;SDS011;2038;51.728;6.674;2023-12-22T05:42:58;8.57;;;3.30;;
4047;SDS011;2038;51.728;6.674;2023-12-22T05:45:25;17.77;;;3.73;;
4047;SDS011;2038;51.728;6.674;2023-12-22T05:47:51;14.57;;;3.10;;
4047;SDS011;2038;51.728;6.674;2023-12-22T05:50:18;14.63;;;4.20;;
4047;SDS011;2038;51.728;6.674;2023-12-22T05:52:45;13.13;;;3.37;;
4047;SDS011;2038;51.728;6.674;2023-12-22T05:55:14;14.13;;;3.33;;
4047;SDS011;2038;51.728;6.674;2023-12-22T05:57:43;15.70;;;3.60;;
4047;SDS011;2038;51.728;6.674;2023-12-22T06:00:12;15.60;;;4.00;;
4047;SDS011;2038;51.728;6.674;2023-12-22T06:02:40;10.60;;;2.80;;
4047;SDS011;2038;51.728;6.674;2023-12-22T06:05:07;8.97;;;3.33;;
4047;SDS011;2038;51.728;6.674;2023-12-22T06:07:33;27.23;;;3.67;;
4047;SDS011;2038;51.728;6.674;2023-12-22T06:09:59;20.23;;;5.50;;
4047;SDS011;2038;51.728;6.674;2023-12-22T06:12:26;16.80;;;4.00;;
4047;SDS011;2038;51.728;6.674;2023-12-22T06:14:52;14.67;;;4.00;;
4047;SDS011;2038;51.728;6.674;2023-12-22T06:17:18;20.10;;;5.27;;
4047;SDS011;2038;51.728;6.674;2023-12-22T06:19:45;8.57;;;3.03;;
4047;SDS011;2038;51.728;6.674;2023-12-22T06:22:11;15.00;;;5.33;;
4047;SDS011;2038;51.728;6.674;2023-12-22T06:24:38;28.43;;;3.37;;
4047;SDS011;2038;51.728;6.674;2023-12-22T06:27:04;15.63;;;3.90;;
4047;SDS011;2038;51.728;6.674;2023-12-22T06:29:31;16.60;;;4.07;;
4047;SDS011;2038;51.728;6.674;2023-12-22T06:31:58;17.37;;;3.60;;
4047;SDS011;2038;51.728;6.674;2023-12-22T06:34:25;15.17;;;3.83;;
4047;SDS011;2038;51.728;6.674;2023-12-22T06:36:52;8.20;;;3.63;;
4047;SDS011;2038;51.728;6.674;2023-12-22T06:39:20;15.03;;;4.03;;
4047;SDS011;2038;51.728;6.674;2023-12-22T06:41:50;14.07;;;3.77;;
4047;SDS011;2038;51.728;6.674;2023-12-22T06:44:16;13.80;;;3.77;;
4047;SDS011;2038;51.728;6.674;2023-12-22T06:46:42;15.03;;;3.63;;
4047;SDS011;2038;51.728;6.674;2023-12-22T06:49:09;15.20;;;4.67;;
4047;SDS011;2038;51.728;6.674;2023-12-22T06:51:36;8.20;;;3.33;;
4047;SDS011;2038;51.728;6.674;2023-12-22T06:54:03;25.07;;;3.97;;
4047;SDS011;2038;51.728;6.674;2023-12-22T06:56:36;13.63;;;3.20;;
4047;SDS011;2038;51.728;6.674;2023-12-22T06:59:03;17.43;;;3.47;;
4047;SDS011;2038;51.728;6.674;2023-12-22T07:01:35;11.30;;;3.00;;
4047;SDS011;2038;51.728;6.674;2023-12-22T07:04:02;16.10;;;4.27;;
4047;SDS011;2038;51.728;6.674;2023-12-22T07:06:30;16.87;;;3.90;;
4047;SDS011;2038;51.728;6.674;2023-12-22T07:11:41;19.47;;;4.33;;
4047;SDS011;2038;51.728;6.674;2023-12-22T07:14:17;11.50;;;4.50;;
4047;SDS011;2038;51.728;6.674;2023-12-22T07:16:47;12.10;;;3.10;;
4047;SDS011;2038;51.728;6.674;2023-12-22T07:19:13;14.03;;;3.83;;
4047;SDS011;2038;51.728;6.674;2023-12-22T07:21:40;14.77;;;3.47;;
4047;SDS011;2038;51.728;6.674;2023-12-22T07:24:07;13.73;;;4.43;;
4047;SDS011;2038;51.728;6.674;2023-12-22T07:26:33;12.83;;;4.17;;
4047;SDS011;2038;51.728;6.674;2023-12-22T07:29:00;18.73;;;3.90;;
4047;SDS011;2038;51.728;6.674;2023-12-22T07:31:29;11.27;;;3.90;;
4047;SDS011;2038;51.728;6.674;2023-12-22T07:33:55;22.67;;;4.67;;
4047;SDS011;2038;51.728;6.674;2023-12-22T07:36:21;17.80;;;3.83;;
4047;SDS011;2038;51.728;6.674;2023-12-22T07:38:48;12.87;;;3.67;;
4047;SDS011;2038;51.728;6.674;2023-12-22T07:41:14;23.00;;;5.60;;
4047;SDS011;2038;51.728;6.674;2023-12-22T07:43:41;17.10;;;6.67;;
4047;SDS011;2038;51.728;6.674;2023-12-22T07:46:07;19.27;;;3.67;;
4047;SDS011;2038;51.728;6.674;2023-12-22T07:48:34;18.30;;;3.80;;
4047;SDS011;2038;51.728;6.674;2023-12-22T07:51:00;20.83;;;4.80;;
4047;SDS011;2038;51.728;6.674;2023-12-22T07:53:27;9.90;;;4.57;;
4047;SDS011;2038;51.728;6.674;2023-12-22T07:55:54;11.90;;;3.17;;
4047;SDS011;2038;51.728;6.674;2023-12-22T07:58:20;24.27;;;6.60;;
4047;SDS011;2038;51.728;6.674;2023-12-22T08:00:47;18.40;;;3.60;;
4047;SDS011;2038;51.728;6.674;2023-12-22T08:03:13;26.23;;;4.50;;
4047;SDS011;2038;51.728;6.674;2023-12-22T08:05:40;17.20;;;4.63;;
4047;SDS011;2038;51.728;6.674;2023-12-22T08:08:09;14.50;;;4.13;;
4047;SDS011;2038;51.728;6.674;2023-12-22T08:10:36;23.90;;;4.87;;
4047;SDS011;2038;51.728;6.674;2023-12-22T08:13:02;21.33;;;7.23;;
4047;SDS011;2038;51.728;6.674;2023-12-22T08:15:29;17.07;;;5.47;;
4047;SDS011;2038;51.728;6.674;2023-12-22T08:17:57;23.23;;;5.27;;
4047;SDS011;2038;51.728;6.674;2023-12-22T08:20:23;12.90;;;4.90;;
4047;SDS011;2038;51.728;6.674;2023-12-22T08:22:50;14.97;;;4.57;;
4047;SDS011;2038;51.728;6.674;2023-12-22T08:25:17;20.10;;;5.17;;
4047;SDS011;2038;51.728;6.674;2023-12-22T08:27:46;20.07;;;5.00;;
4047;SDS011;2038;51.728;6.674;2023-12-22T08:30:12;24.40;;;6.50;;
4047;SDS011;2038;51.728;6.674;2023-12-22T08:32:42;12.83;;;5.10;;
4047;SDS011;2038;51.728;6.674;2023-12-22T08:35:08;16.00;;;5.47;;
4047;SDS011;2038;51.728;6.674;2023-12-22T08:37:36;27.63;;;6.90;;
4047;SDS011;2038;51.728;6.674;2023-12-22T08:40:02;18.13;;;5.67;;
4047;SDS011;2038;51.728;6.674;2023-12-22T08:42:30;19.30;;;6.30;;
4047;SDS011;2038;51.728;6.674;2023-12-22T08:44:57;29.77;;;7.37;;
4047;SDS011;2038;51.728;6.674;2023-12-22T08:47:24;27.20;;;6.27;;
4047;SDS011;2038;51.728;6.674;2023-12-22T08:49:51;32.73;;;7.63;;
4047;SDS011;2038;51.728;6.674;2023-12-22T08:52:18;34.70;;;6.47;;
4047;SDS011;2038;51.728;6.674;2023-12-22T08:54:44;26.23;;;6.50;;
4047;SDS011;2038;51.728;6.674;2023-12-22T08:57:10;23.03;;;6.30;;
4047;SDS011;2038;51.728;6.674;2023-12-22T08:59:37;31.73;;;4.90;;
4047;SDS011;2038;51.728;6.674;2023-12-22T09:02:03;18.87;;;4.57;;
4047;SDS011;2038;51.728;6.674;2023-12-22T09:04:31;20.87;;;4.40;;
4047;SDS011;2038;51.728;6.674;2023-12-22T09:06:57;15.77;;;4.13;;
4047;SDS011;2038;51.728;6.674;2023-12-22T09:09:23;12.17;;;4.17;;
4047;SDS011;2038;51.728;6.674;2023-12-22T09:11:50;15.03;;;2.97;;
4047;SDS011;2038;51.728;6.674;2023-12-22T09:14:16;13.80;;;4.27;;
4047;SDS011;2038;51.728;6.674;2023-12-22T09:16:43;12.63;;;3.63;;
4047;SDS011;2038;51.728;6.674;2023-12-22T09:19:10;14.70;;;2.97;;
4047;SDS011;2038;51.728;6.674;2023-12-22T09:21:37;5.53;;;2.90;;
4047;SDS011;2038;51.728;6.674;2023-12-22T09:24:04;14.13;;;3.20;;
4047;SDS011;2038;51.728;6.674;2023-12-22T09:26:31;14.00;;;3.90;;
4047;SDS011;2038;51.728;6.674;2023-12-22T09:28:58;10.27;;;4.83;;
4047;SDS011;2038;51.728;6.674;2023-12-22T09:31:24;8.70;;;3.13;;
4047;SDS011;2038;51.728;6.674;2023-12-22T09:33:50;9.53;;;4.00;;
4047;SDS011;2038;51.728;6.674;2023-12-22T09:36:17;15.53;;;4.10;;
4047;SDS011;2038;51.728;6.674;2023-12-22T09:38:43;12.40;;;3.63;;
4047;SDS011;2038;51.728;6.674;2023-12-22T09:41:10;10.07;;;4.10;;
4047;SDS011;2038;51.728;6.674;2023-12-22T09:43:36;23.40;;;3.50;;
4047;SDS011;2038;51.728;6.674;2023-12-22T09:46:04;8.70;;;3.73;;
4047;SDS011;2038;51.728;6.674;2023-12-22T09:48:32;25.10;;;4.33;;
4047;SDS011;2038;51.728;6.674;2023-12-22T09:51:04;14.93;;;5.40;;
4047;SDS011;2038;51.728;6.674;2023-12-22T09:53:32;17.37;;;4.80;;
4047;SDS011;2038;51.728;6.674;2023-12-22T09:56:00;20.13;;;4.63;;
4047;SDS011;2038;51.728;6.674;2023-12-22T09:58:28;33.30;;;6.87;;
4047;SDS011;2038;51.728;6.674;2023-12-22T10:00:56;17.57;;;4.80;;
4047;SDS011;2038;51.728;6.674;2023-12-22T10:03:26;19.43;;;5.67;;
4047;SDS011;2038;51.728;6.674;2023-12-22T10:05:54;21.80;;;5.60;;
4047;SDS011;2038;51.728;6.674;2023-12-22T10:08:20;20.07;;;4.47;;
4047;SDS011;2038;51.728;6.674;2023-12-22T10:10:50;13.30;;;4.03;;
4047;SDS011;2038;51.728;6.674;2023-12-22T10:13:17;14.83;;;4.77;;
4047;SDS011;2038;51.728;6.674;2023-12-22T10:15:44;10.07;;;3.40;;
4047;SDS011;2038;51.728;6.674;2023-12-22T10:18:12;12.90;;;4.60;;
4047;SDS011;2038;51.728;6.674;2023-12-22T10:20:38;19.30;;;5.87;;
4047;SDS011;2038;51.728;6.674;2023-12-22T10:23:05;10.63;;;4.27;;
4047;SDS011;2038;51.728;6.674;2023-12-22T10:25:31;15.40;;;4.30;;
4047;SDS011;2038;51.728;6.674;2023-12-22T10:27:58;15.00;;;4.90;;
4047;SDS011;2038;51.728;6.674;2023-12-22T10:30:24;13.07;;;5.40;;
4047;SDS011;2038;51.728;6.674;2023-12-22T10:32:53;7.80;;;5.10;;
4047;SDS011;2038;51.728;6.674;2023-12-22T10:35:22;19.70;;;4.70;;
4047;SDS011;2038;51.728;6.674;2023-12-22T10:37:49;8.30;;;3.50;;
4047;SDS011;2038;51.728;6.674;2023-12-22T10:40:18;18.40;;;2.97;;
4047;SDS011;2038;51.728;6.674;2023-12-22T10:42:45;9.53;;;3.10;;
4047;SDS011;2038;51.728;6.674;2023-12-22T10:45:13;8.07;;;3.07;;
4047;SDS011;2038;51.728;6.674;2023-12-22T10:47:45;4.27;;;2.03;;
4047;SDS011;2038;51.728;6.674;2023-12-22T10:50:15;9.30;;;2.10;;
4047;SDS011;2038;51.728;6.674;2023-12-22T10:52:48;9.73;;;2.97;;
4047;SDS011;2038;51.728;6.674;2023-12-22T10:55:16;4.50;;;2.10;;
4047;SDS011;2038;51.728;6.674;2023-12-22T10:57:45;1.90;;;1.80;;
4047;SDS011;2038;51.728;6.674;2023-12-22T11:00:13;3.17;;;1.93;;
4047;SDS011;2038;51.728;6.674;2023-12-22T11:02:47;3.57;;;1.70;;
4047;SDS011;2038;51.728;6.674;2023-12-22T11:05:15;5.77;;;1.83;;
4047;SDS011;2038;51.728;6.674;2023-12-22T11:07:47;7.13;;;2.20;;
4047;SDS011;2038;51.728;6.674;2023-12-22T11:10:18;9.73;;;2.83;;
4047;SDS011;2038;51.728;6.674;2023-12-22T11:12:46;7.93;;;1.80;;
4047;SDS011;2038;51.728;6.674;2023-12-22T11:15:14;5.00;;;3.30;;
4047;SDS011;2038;51.728;6.674;2023-12-22T11:17:43;5.80;;;2.57;;
4047;SDS011;2038;51.728;6.674;2023-12-22T11:20:09;3.53;;;2.50;;
4047;SDS011;2038;51.728;6.674;2023-12-22T11:22:38;6.23;;;3.60;;
4047;SDS011;2038;51.728;6.674;2023-12-22T11:25:07;6.23;;;2.03;;
4047;SDS011;2038;51.728;6.674;2023-12-22T11:27:35;5.00;;;3.33;;
4047;SDS011;2038;51.728;6.674;2023-12-22T11:30:04;4.60;;;2.80;;
4047;SDS011;2038;51.728;6.674;2023-12-22T11:32:34;4.90;;;4.40;;
4047;SDS011;2038;51.728;6.674;2023-12-22T11:35:04;4.37;;;2.27;;
4047;SDS011;2038;51.728;6.674;2023-12-22T11:37:32;4.07;;;2.40;;
4047;SDS011;2038;51.728;6.674;2023-12-22T11:40:03;7.27;;;2.23;;
4047;SDS011;2038;51.728;6.674;2023-12-22T11:42:31;7.90;;;2.77;;
4047;SDS011;2038;51.728;6.674;2023-12-22T11:45:09;2.70;;;2.03;;
4047;SDS011;2038;51.728;6.674;2023-12-22T11:47:41;4.07;;;2.20;;
4047;SDS011;2038;51.728;6.674;2023-12-22T11:50:08;6.87;;;2.67;;
4047;SDS011;2038;51.728;6.674;2023-12-22T11:52:38;6.53;;;2.10;;
4047;SDS011;2038;51.728;6.674;2023-12-22T11:55:05;5.50;;;3.10;;
4047;SDS011;2038;51.728;6.674;2023-12-22T11:57:36;6.03;;;3.20;;
4047;SDS011;2038;51.728;6.674;2023-12-22T12:02:53;5.33;;;2.90;;
4047;SDS011;2038;51.728;6.674;2023-12-22T12:05:20;2.67;;;2.47;;
4047;SDS011;2038;51.728;6.674;2023-12-22T12:07:48;7.90;;;2.63;;
4047;SDS011;2038;51.728;6.674;2023-12-22T12:13:09;9.87;;;3.10;;
4047;SDS011;2038;51.728;6.674;2023-12-22T12:15:37;8.40;;;2.77;;
4047;SDS011;2038;51.728;6.674;2023-12-22T12:18:04;17.60;;;3.50;;
4047;SDS011;2038;51.728;6.674;2023-12-22T12:20:31;5.70;;;3.20;;
4047;SDS011;2038;51.728;6.674;2023-12-22T12:22:59;11.20;;;3.40;;
4047;SDS011;2038;51.728;6.674;2023-12-22T12:25:28;11.23;;;4.03;;
4047;SDS011;2038;51.728;6.674;2023-12-22T12:28:01;5.70;;;2.90;;
4047;SDS011;2038;51.728;6.674;2023-12-22T12:30:33;6.63;;;2.80;;
4047;SDS011;2038;51.728;6.674;2023-12-22T12:35:35;10.13;;;3.30;;
4047;SDS011;2038;51.728;6.674;2023-12-22T12:38:06;4.27;;;2.13;;
4047;SDS011;2038;51.728;6.674;2023-12-22T12:40:33;7.63;;;3.77;;
4047;SDS011;2038;51.728;6.674;2023-12-22T12:43:04;3.17;;;1.87;;
4047;SDS011;2038;51.728;6.674;2023-12-22T12:45:31;7.07;;;1.80;;
4047;SDS011;2038;51.728;6.674;2023-12-22T12:47:59;5.63;;;1.93;;
4047;SDS011;2038;51.728;6.674;2023-12-22T12:50:29;6.70;;;1.67;;
4047;SDS011;2038;51.728;6.674;2023-12-22T12:52:56;6.10;;;3.17;;
4047;SDS011;2038;51.728;6.674;2023-12-22T12:55:24;10.47;;;2.50;;
4047;SDS011;2038;51.728;6.674;2023-12-22T12:57:51;4.70;;;2.07;;
4047;SDS011;2038;51.728;6.674;2023-12-22T13:00:23;8.93;;;2.70;;
4047;SDS011;2038;51.728;6.674;2023-12-22T13:02:53;35.30;;;3.13;;
4047;SDS011;2038;51.728;6.674;2023-12-22T13:05:30;10.57;;;2.70;;
4047;SDS011;2038;51.728;6.674;2023-12-22T13:08:07;14.43;;;3.90;;
4047;SDS011;2038;51.728;6.674;2023-12-22T13:10:38;7.40;;;3.20;;
4047;SDS011;2038;51.728;6.674;2023-12-22T13:13:06;5.73;;;3.10;;
4047;SDS011;2038;51.728;6.674;2023-12-22T13:15:32;12.70;;;3.47;;
4047;SDS011;2038;51.728;6.674;2023-12-22T13:17:59;2.90;;;2.60;;
4047;SDS011;2038;51.728;6.674;2023-12-22T13:20:26;14.67;;;3.00;;
4047;SDS011;2038;51.728;6.674;2023-12-22T13:22:53;5.70;;;2.70;;
4047;SDS011;2038;51.728;6.674;2023-12-22T13:25:20;7.47;;;2.47;;
4047;SDS011;2038;51.728;6.674;2023-12-22T13:27:49;4.27;;;2.77;;
4047;SDS011;2038;51.728;6.674;2023-12-22T13:30:35;8.30;;;2.53;;
4047;SDS011;2038;51.728;6.674;2023-12-22T13:33:06;6.13;;;2.70;;
4047;SDS011;2038;51.728;6.674;2023-12-22T13:35:33;5.40;;;2.90;;
4047;SDS011;2038;51.728;6.674;2023-12-22T13:38:06;10.17;;;2.27;;
4047;SDS011;2038;51.728;6.674;2023-12-22T13:40:34;9.20;;;3.10;;
4047;SDS011;2038;51.728;6.674;2023-12-22T13:43:03;7.00;;;3.10;;
4047;SDS011;2038;51.728;6.674;2023-12-22T13:45:32;4.70;;;2.23;;
4047;SDS011;2038;51.728;6.674;2023-12-22T13:47:58;5.73;;;1.83;;
4047;SDS011;2038;51.728;6.674;2023-12-22T13:50:25;7.80;;;2.90;;
4047;SDS011;2038;51.728;6.674;2023-12-22T13:52:52;6.73;;;2.67;;
4047;SDS011;2038;51.728;6.674;2023-12-22T13:55:19;7.63;;;3.40;;
4047;SDS011;2038;51.728;6.674;2023-12-22T13:57:47;7.87;;;2.30;;
4047;SDS011;2038;51.728;6.674;2023-12-22T14:02:49;7.70;;;2.83;;
4047;SDS011;2038;51.728;6.674;2023-12-22T14:05:18;11.27;;;2.63;;
4047;SDS011;2038;51.728;6.674;2023-12-22T14:07:45;10.47;;;2.30;;
4047;SDS011;2038;51.728;6.674;2023-12-22T14:10:13;10.10;;;3.43;;
4047;SDS011;2038;51.728;6.674;2023-12-22T14:12:40;8.10;;;2.43;;
4047;SDS011;2038;51.728;6.674;2023-12-22T14:15:11;6.50;;;3.30;;
4047;SDS011;2038;51.728;6.674;2023-12-22T14:17:41;10.17;;;3.10;;
4047;SDS011;2038;51.728;6.674;2023-12-22T14:20:08;10.80;;;2.20;;
4047;SDS011;2038;51.728;6.674;2023-12-22T14:22:36;6.70;;;2.10;;
4047;SDS011;2038;51.728;6.674;2023-12-22T14:25:03;10.67;;;2.97;;
4047;SDS011;2038;51.728;6.674;2023-12-22T14:27:31;7.87;;;2.53;;
4047;SDS011;2038;51.728;6.674;2023-12-22T14:29:57;4.90;;;2.23;;
4047;SDS011;2038;51.728;6.674;2023-12-22T14:32:24;12.27;;;3.63;;
4047;SDS011;2038;51.728;6.674;2023-12-22T14:34:50;8.83;;;3.13;;
4047;SDS011;2038;51.728;6.674;2023-12-22T14:37:17;5.83;;;2.10;;
4047;SDS011;2038;51.728;6.674;2023-12-22T14:39:44;13.73;;;2.20;;
4047;SDS011;2038;51.728;6.674;2023-12-22T14:42:11;4.80;;;1.63;;
4047;SDS011;2038;51.728;6.674;2023-12-22T14:44:38;5.53;;;2.60;;
4047;SDS011;2038;51.728;6.674;2023-12-22T14:47:05;11.27;;;2.93;;
4047;SDS011;2038;51.728;6.674;2023-12-22T14:49:32;7.17;;;2.77;;
4047;SDS011;2038;51.728;6.674;2023-12-22T14:51:58;11.40;;;2.90;;
4047;SDS011;2038;51.728;6.674;2023-12-22T14:54:25;4.80;;;2.10;;
4047;SDS011;2038;51.728;6.674;2023-12-22T14:56:51;12.60;;;3.03;;
4047;SDS011;2038;51.728;6.674;2023-12-22T14:59:18;5.90;;;2.40;;
4047;SDS011;2038;51.728;6.674;2023-12-22T15:01:44;7.50;;;2.80;;
4047;SDS011;2038;51.728;6.674;2023-12-22T15:04:11;10.33;;;3.17;;
4047;SDS011;2038;51.728;6.674;2023-12-22T15:06:41;9.57;;;2.90;;
4047;SDS011;2038;51.728;6.674;2023-12-22T15:09:10;6.07;;;2.50;;
4047;SDS011;2038;51.728;6.674;2023-12-22T15:11:40;16.20;;;2.47;;
4047;SDS011;2038;51.728;6.674;2023-12-22T15:14:08;13.10;;;2.13;;
4047;SDS011;2038;51.728;6.674;2023-12-22T15:16:38;3.37;;;2.70;;
4047;SDS011;2038;51.728;6.674;2023-12-22T15:19:06;10.70;;;1.87;;
4047;SDS011;2038;51.728;6.674;2023-12-22T15:21:32;7.07;;;1.90;;
4047;SDS011;2038;51.728;6.674;2023-12-22T15:24:02;3.60;;;2.07;;
4047;SDS011;2038;51.728;6.674;2023-12-22T15:26:29;14.37;;;2.53;;
4047;SDS011;2038;51.728;6.674;2023-12-22T15:28:55;11.90;;;3.37;;
4047;SDS011;2038;51.728;6.674;2023-12-22T15:31:22;11.17;;;2.93;;
4047;SDS011;2038;51.728;6.674;2023-12-22T15:33:49;13.00;;;4.10;;